Flugplatz Kempten-Durach

Für EDMK sind keine METAR/TAF Berichte vorhanden.
Es werden die Flugwettermeldungen vom Flugplatz Memmingen Allgau in 33 km Entfernung angezeigt.

Bericht für EDJA

vom 22.03. um 21:20 UTC

Wind 5 kt aus 150°

Sichtweite 10 km oder mehr

gute Sicht, keine Wolken < 5000 ft, keine CB, keine Wettererscheinungen (CAVOK)

Temperatur 3.0°C

Taupunkt 0.0°C

Luftfeuchtigkeit 81%

Luftdruck 1028 hPa

EDJA 222120Z 15005KT CAVOK 03/00 Q1028

Prognose für EDJA

vom 22.03. um 17:00 UTC

Zwischen 18:00 UTC und 03:00 UTC

variable Windrichtung mit 3 kt

Sichtweite 10 km oder mehr

keine signifikanten Wettererscheinungen

keine Wolken

TAF EDJA 221700Z 2218/2303 VRB03KT CAVOK
Impressum